Time;durP1;ratioP1;P1;durP2;ratioP2;P2;SDS_P1;SDS_P2;PMS_P1;PMS_P2;Temp;Humidity;BMP_temperature;BMP_pressure;BME280_temperature;BME280_humidity;BME280_pressure;Samples;Min_cycle;Max_cycle;Signal;HPM_P1;HPM_P2
2022/11/02 00:00:24;;;;;;;;;;;;;;;;;;5052886;28;7544;-75
2022/11/02 00:02:49;;;;;;;;;;;;;;;;;;5053265;28;7582;-75
2022/11/02 00:05:14;;;;;;;;;;;;;;;;;;5051980;28;7517;-75
2022/11/02 00:07:40;;;;;;;;;;;;;;;;;;5053507;28;7539;-76
2022/11/02 00:10:05;;;;;;;;;;;;;;;;;;5053332;28;7988;-76
2022/11/02 00:12:30;;;;;;;;;;;;;;;;;;5053010;28;7521;-75
2022/11/02 00:14:55;;;;;;;;;;;;;;;;;;5053195;28;7529;-75
2022/11/02 00:17:20;;;;;;;;;;;;;;;;;;5053087;28;7529;-75
2022/11/02 00:19:46;;;;;;;;;;;;;;;;;;5052427;28;7541;-75
2022/11/02 00:22:11;;;;;;;;;;;;;;;;;;5053123;28;7525;-76
2022/11/02 00:24:36;;;;;;;;;;;;;;;;;;5052968;28;7678;-76
2022/11/02 00:27:01;;;;;;;;;;;;;;;;;;5052898;28;7528;-76
2022/11/02 00:29:26;;;;;;;;;;;;;;;;;;5052775;28;7532;-76
2022/11/02 00:31:51;;;;;;;;;;;;;;;;;;5052802;28;7525;-76
2022/11/02 00:34:17;;;;;;;;;;;;;;;;;;5052722;28;7537;-77
2022/11/02 00:36:42;;;;;;;;;;;;;;;;;;5051346;28;7529;-75
2022/11/02 00:39:07;;;;;;;;;;;;;;;;;;5052955;28;7533;-75
2022/11/02 00:41:32;;;;;;;;;;;;;;;;;;5051144;28;7517;-74
2022/11/02 00:43:57;;;;;;;;;;;;;;;;;;5052534;28;7533;-74
2022/11/02 00:46:22;;;;;;;;;;;;;;;;;;5052703;28;8687;-74
2022/11/02 00:48:47;;;;;;;;;;;;;;;;;;5049566;28;7525;-76
2022/11/02 00:51:12;;;;;;;;;;;;;;;;;;5052546;28;7520;-75
2022/11/02 00:53:38;;;;;;;;;;;;;;;;;;5051944;28;7520;-75
2022/11/02 00:56:03;;;;;;;;;;;;;;;;;;5052183;28;7540;-75
2022/11/02 00:58:28;;;;;;;;;;;;;;;;;;5052116;28;7619;-74
2022/11/02 01:00:55;;;;;;;;;;;;;;;;;;5052116;28;7533;-74
2022/11/02 01:03:20;;;;;;;;;;;;;;;;;;5052127;28;7519;-74
2022/11/02 01:05:45;;;;;;;;;;;;;;;;;;5050562;28;7533;-75
2022/11/02 01:08:10;;;;;;;;;;;;;;;;;;5052141;28;7528;-75
2022/11/02 01:10:35;;;;;;;;;;;;;;;;;;5052395;28;7963;-75
2022/11/02 01:13:00;;;;;;;;;;;;;;;;;;5051841;28;7604;-75
2022/11/02 01:15:26;;;;;;;;;;;;;;;;;;5051891;28;7525;-75
2022/11/02 01:17:51;;;;;;;;;;;;;;;;;;5048520;28;7533;-75
2022/11/02 01:20:16;;;;;;;;;;;;;;;;;;5051875;28;7623;-75
2022/11/02 01:22:41;;;;;;;;;;;;;;;;;;5051911;28;7964;-75
2022/11/02 01:25:06;;;;;;;;;;;;;;;;;;5047922;28;7564;-75
2022/11/02 01:27:31;;;;;;;;;;;;;;;;;;5051467;28;7525;-75
2022/11/02 01:29:57;;;;;;;;;;;;;;;;;;5051562;28;7533;-75
2022/11/02 01:32:22;;;;;;;;;;;;;;;;;;5051604;28;7525;-74
2022/11/02 01:34:47;;;;;;;;;;;;;;;;;;5050098;28;7537;-75
2022/11/02 01:37:12;;;;;;;;;;;;;;;;;;5048202;28;7525;-74
2022/11/02 01:39:37;;;;;;;;;;;;;;;;;;5051872;28;7648;-76
2022/11/02 01:42:02;;;;;;;;;;;;;;;;;;5051661;28;7556;-75
2022/11/02 01:44:28;;;;;;;;;;;;;;;;;;5051248;28;7571;-75
2022/11/02 01:46:53;;;;;;;;;;;;;;;;;;5051057;28;7536;-74
2022/11/02 01:49:18;;;;;;;;;;;;;;;;;;5051243;28;7533;-75
2022/11/02 01:51:43;;;;;;;;;;;;;;;;;;5051340;28;7541;-75
2022/11/02 01:54:08;;;;;;;;;;;;;;;;;;5049845;28;7529;-76
2022/11/02 01:56:33;;;;;;;;;;;;;;;;;;5051153;28;7533;-75
2022/11/02 01:58:59;;;;;;;;;;;;;;;;;;5051085;28;7552;-75
2022/11/02 02:01:24;;;;;;;;;;;;;;;;;;5050924;28;7991;-75
2022/11/02 02:03:49;;;;;;;;;;;;;;;;;;5051094;28;7551;-75
2022/11/02 02:06:14;;;;;;;;;;;;;;;;;;5050828;28;7537;-75
2022/11/02 02:08:39;;;;;;;;;;;;;;;;;;5050751;28;7643;-75
2022/11/02 02:11:04;;;;;;;;;;;;;;;;;;5050927;28;7525;-75
2022/11/02 02:13:29;;;;;;;;;;;;;;;;;;5050896;28;7533;-75
2022/11/02 02:15:55;;;;;;;;;;;;;;;;;;5051745;28;8855;-75
2022/11/02 02:18:20;;;;;;;;;;;;;;;;;;5050803;28;7521;-75
2022/11/02 02:20:45;;;;;;;;;;;;;;;;;;5050625;28;7529;-75
2022/11/02 02:23:10;;;;;;;;;;;;;;;;;;5050733;28;7960;-76
2022/11/02 02:25:35;;;;;;;;;;;;;;;;;;5050077;28;7529;-76
2022/11/02 02:28:00;;;;;;;;;;;;;;;;;;5050529;28;7521;-76
2022/11/02 02:30:27;;;;;;;;;;;;;;;;;;5050466;28;7513;-76
2022/11/02 02:32:52;;;;;;;;;;;;;;;;;;5050671;28;7576;-76
2022/11/02 02:35:18;;;;;;;;;;;;;;;;;;5049246;28;7521;-76
2022/11/02 02:37:43;;;;;;;;;;;;;;;;;;5050307;28;7582;-75
2022/11/02 02:40:08;;;;;;;;;;;;;;;;;;5061291;28;7547;-75
2022/11/02 02:42:33;;;;;;;;;;;;;;;;;;5071698;28;7562;-76
2022/11/02 02:44:58;;;;;;;;;;;;;;;;;;5078882;22;7553;-79
2022/11/02 02:47:26;;;;;;;;;;;;;;;;;;5031184;28;7536;-78
2022/11/02 02:49:51;;;;;;;;;;;;;;;;;;5031171;28;7566;-79
2022/11/02 02:52:16;;;;;;;;;;;;;;;;;;5029818;28;7529;-79
2022/11/02 02:54:41;;;;;;;;;;;;;;;;;;5029660;28;7533;-77
2022/11/02 02:57:07;;;;;;;;;;;;;;;;;;5031351;28;8011;-78
2022/11/02 02:59:32;;;;;;;;;;;;;;;;;;5030961;28;7627;-79
2022/11/02 03:01:57;;;;;;;;;;;;;;;;;;5030867;28;7533;-79
2022/11/02 03:04:22;;;;;;;;;;;;;;;;;;5031107;28;7521;-78
2022/11/02 03:06:47;;;;;;;;;;;;;;;;;;5031116;28;7533;-79
2022/11/02 03:09:12;;;;;;;;;;;;;;;;;;5030997;28;7529;-78
2022/11/02 03:11:38;;;;;;;;;;;;;;;;;;5031040;28;7596;-78
2022/11/02 03:14:03;;;;;;;;;;;;;;;;;;5030847;28;7533;-79
2022/11/02 03:16:28;;;;;;;;;;;;;;;;;;5031018;28;7525;-79
2022/11/02 03:18:53;;;;;;;;;;;;;;;;;;5030314;28;7521;-79
2022/11/02 03:21:18;;;;;;;;;;;;;;;;;;5030836;28;7533;-79
2022/11/02 03:23:43;;;;;;;;;;;;;;;;;;5034824;28;7513;-79
2022/11/02 03:26:08;;;;;;;;;;;;;;;;;;5034765;28;8004;-79
2022/11/02 03:28:33;;;;;;;;;;;;;;;;;;5034871;28;7540;-79
2022/11/02 03:30:59;;;;;;;;;;;;;;;;;;5034303;28;7525;-79
2022/11/02 03:33:24;;;;;;;;;;;;;;;;;;5034626;28;7949;-78
2022/11/02 03:35:49;;;;;;;;;;;;;;;;;;5034139;28;7525;-78
2022/11/02 03:38:14;;;;;;;;;;;;;;;;;;5034512;28;7525;-79
2022/11/02 03:40:39;;;;;;;;;;;;;;;;;;5034324;28;7537;-78
2022/11/02 03:43:04;;;;;;;;;;;;;;;;;;5035052;28;8112;-79
2022/11/02 03:45:29;;;;;;;;;;;;;;;;;;5032999;28;7628;-78
2022/11/02 03:47:55;;;;;;;;;;;;;;;;;;5034479;28;7536;-79
2022/11/02 03:50:20;;;;;;;;;;;;;;;;;;5034326;28;7537;-80
2022/11/02 03:52:45;;;;;;;;;;;;;;;;;;5032572;28;7537;-80
2022/11/02 03:55:10;;;;;;;;;;;;;;;;;;5032974;28;7532;-80
2022/11/02 03:57:35;;;;;;;;;;;;;;;;;;5034190;28;7521;-78
2022/11/02 04:00:00;;;;;;;;;;;;;;;;;;5034001;28;7604;-78
2022/11/02 04:02:25;;;;;;;;;;;;;;;;;;5033992;28;7616;-78
2022/11/02 04:04:50;;;;;;;;;;;;;;;;;;5034045;28;7578;-78
2022/11/02 04:07:16;;;;;;;;;;;;;;;;;;5032744;28;7518;-78
2022/11/02 04:09:41;;;;;;;;;;;;;;;;;;5031902;28;7985;-79
2022/11/02 04:14:50;;;;;;;;;;;;;;;;;;5034209;28;7541;-79
2022/11/02 04:19:58;;;;;;;;;;;;;;;;;;5034181;28;7510;-80
2022/11/02 04:25:19;;;;;;;;;;;;;;;;;;5033861;28;7513;-80
2022/11/02 04:27:45;;;;;;;;;;;;;;;;;;5032386;28;7537;-80
2022/11/02 04:30:10;;;;;;;;;;;;;;;;;;5033295;28;7527;-79
2022/11/02 04:35:19;;;;;;;;;;;;;;;;;;5033631;28;7529;-76
2022/11/02 04:40:28;;;;;;;;;;;;;;;;;;5033435;28;7531;-77
2022/11/02 04:42:56;;;;;;;;;;;;;;;;;;5033533;28;7525;-77
2022/11/02 04:45:21;;;;;;;;;;;;;;;;;;5051950;22;7552;-80
2022/11/02 04:47:46;;;;;;;;;;;;;;;;;;5043374;28;7529;-80
2022/11/02 04:50:12;;;;;;;;;;;;;;;;;;5041692;28;7537;-81
2022/11/02 04:52:37;;;;;;;;;;;;;;;;;;5043095;28;7529;-79
2022/11/02 04:55:02;;;;;;;;;;;;;;;;;;5040747;28;8062;-80
2022/11/02 04:57:27;;;;;;;;;;;;;;;;;;5042056;28;7509;-79
2022/11/02 04:59:52;;;;;;;;;;;;;;;;;;5039952;28;7533;-82
2022/11/02 05:02:17;;;;;;;;;;;;;;;;;;5042578;28;7529;-81
2022/11/02 05:04:43;;;;;;;;;;;;;;;;;;5042075;28;7529;-80
2022/11/02 05:07:09;;;;;;;;;;;;;;;;;;5039132;28;7533;-82
2022/11/02 05:09:34;;;;;;;;;;;;;;;;;;5041097;28;7537;-82
2022/11/02 05:12:00;;;;;;;;;;;;;;;;;;5043552;28;7556;-81
2022/11/02 05:14:25;;;;;;;;;;;;;;;;;;5041224;28;7548;-81
2022/11/02 05:16:50;;;;;;;;;;;;;;;;;;5042813;28;7537;-80
2022/11/02 05:19:16;;;;;;;;;;;;;;;;;;5041309;28;7594;-80
2022/11/02 05:21:41;;;;;;;;;;;;;;;;;;5041016;28;8009;-78
2022/11/02 05:24:06;;;;;;;;;;;;;;;;;;5042868;28;7525;-79
2022/11/02 05:26:31;;;;;;;;;;;;;;;;;;5041368;28;8135;-80
2022/11/02 05:28:56;;;;;;;;;;;;;;;;;;5041757;28;7532;-79
2022/11/02 05:31:21;;;;;;;;;;;;;;;;;;5043506;28;7524;-81
2022/11/02 05:33:46;;;;;;;;;;;;;;;;;;5041743;28;7533;-80
2022/11/02 05:36:12;;;;;;;;;;;;;;;;;;5040587;28;7520;-78
2022/11/02 05:38:37;;;;;;;;;;;;;;;;;;5042839;28;7540;-80
2022/11/02 05:41:02;;;;;;;;;;;;;;;;;;5039943;28;7552;-80
2022/11/02 05:43:27;;;;;;;;;;;;;;;;;;5039801;28;7551;-80
2022/11/02 05:45:53;;;;;;;;;;;;;;;;;;5046380;28;7537;-78
2022/11/02 05:48:18;;;;;;;;;;;;;;;;;;5040784;28;7521;-81
2022/11/02 05:50:43;;;;;;;;;;;;;;;;;;5040930;28;7529;-82
2022/11/02 05:53:08;;;;;;;;;;;;;;;;;;5038933;28;7544;-79
2022/11/02 05:55:34;;;;;;;;;;;;;;;;;;5037324;28;7563;-78
2022/11/02 05:57:59;;;;;;;;;;;;;;;;;;5041956;28;8001;-78
2022/11/02 06:00:24;;;;;;;;;;;;;;;;;;5039856;28;7529;-77
2022/11/02 06:02:49;;;;;;;;;;;;;;;;;;5039588;28;7529;-77
2022/11/02 06:05:14;;;;;;;;;;;;;;;;;;5040851;28;7513;-77
2022/11/02 06:07:39;;;;;;;;;;;;;;;;;;5031757;28;7608;-75
2022/11/02 06:10:05;;;;;;;;;;;;;;;;;;5040755;28;7537;-76
2022/11/02 06:12:30;;;;;;;;;;;;;;;;;;5050529;28;7548;-79
2022/11/02 06:14:55;;;;;;;;;;;;;;;;;;5051800;28;7531;-79
2022/11/02 06:17:21;;;;;;;;;;;;;;;;;;5051545;28;7545;-79
2022/11/02 06:19:46;;;;;;;;;;;;;;;;;;5051695;28;7571;-78
2022/11/02 06:22:11;;;;;;;;;;;;;;;;;;5051472;28;7964;-78
2022/11/02 06:24:36;;;;;;;;;;;;;;;;;;5050341;28;7987;-81
2022/11/02 06:27:01;;;;;;;;;;;;;;;;;;5051594;28;7532;-75
2022/11/02 06:29:26;;;;;;;;;;;;;;;;;;5050749;28;7989;-78
2022/11/02 06:31:52;;;;;;;;;;;;;;;;;;5050507;28;7604;-79
2022/11/02 06:34:17;;;;;;;;;;;;;;;;;;5049830;28;7589;-77
2022/11/02 06:36:42;;;;;;;;;;;;;;;;;;5047463;28;7535;-77
2022/11/02 06:39:07;;;;;;;;;;;;;;;;;;5031470;28;7555;-76
2022/11/02 06:41:32;;;;;;;;;;;;;;;;;;5049643;28;7567;-75
2022/11/02 06:43:57;;;;;;;;;;;;;;;;;;5043821;28;7533;-74
2022/11/02 06:46:22;;;;;;;;;;;;;;;;;;5040915;28;7545;-79
2022/11/02 06:48:47;;;;;;;;;;;;;;;;;;5040511;28;7525;-76
2022/11/02 06:51:13;;;;;;;;;;;;;;;;;;5042008;28;7533;-78
2022/11/02 06:53:38;;;;;;;;;;;;;;;;;;5039801;28;7613;-80
2022/11/02 06:56:03;;;;;;;;;;;;;;;;;;5043403;28;7525;-79
2022/11/02 06:58:28;;;;;;;;;;;;;;;;;;5030876;28;7529;-77
2022/11/02 07:00:53;;;;;;;;;;;;;;;;;;5031883;28;7564;-78
2022/11/02 07:03:18;;;;;;;;;;;;;;;;;;5049856;28;7524;-80
2022/11/02 07:05:43;;;;;;;;;;;;;;;;;;5048552;28;7555;-77
2022/11/02 07:08:08;;;;;;;;;;;;;;;;;;5049115;28;7521;-76
2022/11/02 07:10:34;;;;;;;;;;;;;;;;;;5049394;28;7529;-78
2022/11/02 07:12:59;;;;;;;;;;;;;;;;;;5049259;28;7544;-76
2022/11/02 07:15:24;;;;;;;;;;;;;;;;;;5050049;28;7517;-75
2022/11/02 07:17:49;;;;;;;;;;;;;;;;;;5050330;28;7589;-75
2022/11/02 07:20:15;;;;;;;;;;;;;;;;;;5050236;28;7517;-76
2022/11/02 07:22:40;;;;;;;;;;;;;;;;;;5050504;28;7624;-75
2022/11/02 07:25:05;;;;;;;;;;;;;;;;;;5050227;28;7632;-75
2022/11/02 07:27:30;;;;;;;;;;;;;;;;;;5050551;28;7644;-77
2022/11/02 07:29:57;;;;;;;;;;;;;;;;;;5050378;28;7529;-78
2022/11/02 07:32:22;;;;;;;;;;;;;;;;;;5049908;28;7533;-75
2022/11/02 07:34:47;;;;;;;;;;;;;;;;;;5039669;28;7548;-74
2022/11/02 07:37:12;;;;;;;;;;;;;;;;;;5038918;28;7562;-74
2022/11/02 07:39:37;;;;;;;;;;;;;;;;;;5040644;28;7623;-74
2022/11/02 07:42:02;;;;;;;;;;;;;;;;;;5040517;28;7521;-73
2022/11/02 07:44:29;;;;;;;;;;;;;;;;;;5039665;28;7548;-75
2022/11/02 07:46:54;;;;;;;;;;;;;;;;;;5039557;28;7525;-75
2022/11/02 07:49:20;;;;;;;;;;;;;;;;;;5038922;28;8819;-74
2022/11/02 07:51:45;;;;;;;;;;;;;;;;;;5038703;28;7517;-76
2022/11/02 07:54:10;;;;;;;;;;;;;;;;;;5038999;28;7698;-79
2022/11/02 07:56:35;;;;;;;;;;;;;;;;;;5038526;28;7559;-75
2022/11/02 07:59:00;;;;;;;;;;;;;;;;;;5040869;28;8790;-74
2022/11/02 08:01:25;;;;;;;;;21.80;18.80;;;;;;;;5038338;28;7975;-73
2022/11/02 08:03:51;;;;;;;;;17.50;17.50;;;;;;;;5033753;28;13604;-74
2022/11/02 08:06:16;;;;;;;;;;;;;;;;;;5037009;28;8906;-75
2022/11/02 08:08:41;;;;;;;;;19.75;17.25;;;;;;;;5039760;28;8813;-76
2022/11/02 08:11:07;;;;;;;;;20.75;20.00;;;;;;;;5041607;28;9581;-75
2022/11/02 08:13:33;;;;;;;;;19.50;17.00;;;;;;;;5041226;28;8811;-75
2022/11/02 08:15:58;;;;;;;;;17.75;17.00;;;;;;;;5036240;28;13681;-75
2022/11/02 08:18:25;;;;;;;;;26.33;23.67;;;;;;;;5037683;28;13542;-73
2022/11/02 08:20:50;;;;;;;;;;;;;;;;;;5043331;28;8835;-74
2022/11/02 08:23:15;;;;;;;;;;;;;;;;;;5041790;28;7551;-75
2022/11/02 08:25:41;;;;;;;;;20.00;18.40;;;;;;;;5040979;28;8855;-74
2022/11/02 08:28:06;;;;;;;;;;;;;;;;;;5042545;28;8803;-74
2022/11/02 08:30:32;;;;;;;;;;;;;;;;;;5042716;28;8911;-76
2022/11/02 08:32:57;;;;;;;;;;;;;;;;;;5043940;28;8813;-74
2022/11/02 08:35:22;;;;;;;;;;;;;;;;;;5041740;28;8881;-74
2022/11/02 08:37:47;;;;;;;;;;;;;;;;;;5042236;28;7535;-74
2022/11/02 08:40:12;;;;;;;;;;;;;;;;;;5044507;28;7528;-73
2022/11/02 08:42:38;;;;;;;;;;;;;;;;;;5040405;28;7549;-74
2022/11/02 08:45:03;;;;;;;;;;;;;;;;;;5042693;28;7525;-74
2022/11/02 08:47:28;;;;;;;;;;;;;;;;;;5042428;28;8800;-76
2022/11/02 08:49:53;;;;;;;;;24.20;22.80;;;;;;;;5039877;28;7532;-73
2022/11/02 08:52:18;;;;;;;;;;;;;;;;;;5043168;28;8817;-74
2022/11/02 08:54:43;;;;;;;;;;;;;;;;;;5041085;28;7531;-73
2022/11/02 08:57:08;;;;;;;;;;;;;;;;;;5041944;28;7604;-74
2022/11/02 08:59:34;;;;;;;;;;;;;;;;;;5041778;28;7521;-73
2022/11/02 09:01:59;;;;;;;;;;;;;;;;;;5037945;28;7536;-73
2022/11/02 09:04:24;;;;;;;;;;;;;;;;;;5046685;28;7533;-72
2022/11/02 09:06:49;;;;;;;;;;;;;;;;;;5051846;28;8813;-72
2022/11/02 09:09:14;;;;;;;;;;;;;;;;;;5050920;28;7616;-72
2022/11/02 09:11:39;;;;;;;;;;;;;;;;;;5052311;28;7533;-73
2022/11/02 09:14:06;;;;;;;;;;;;;;;;;;5051542;28;7517;-72
2022/11/02 09:16:31;;;;;;;;;;;;;;;;;;5051248;28;8000;-73
2022/11/02 09:18:56;;;;;;;;;;;;;;;;;;5052196;28;7528;-75
2022/11/02 09:21:21;;;;;;;;;;;;;;;;;;5041391;28;7556;-74
2022/11/02 09:23:48;;;;;;;;;;;;;;;;;;5041732;28;7525;-75
2022/11/02 09:26:13;;;;;;;;;;;;;;;;;;5040877;28;7533;-73
2022/11/02 09:28:38;;;;;;;;;;;;;;;;;;5042158;28;7529;-75
2022/11/02 09:31:03;;;;;;;;;;;;;;;;;;5042479;28;7536;-76
2022/11/02 09:33:28;;;;;;;;;;;;;;;;;;5040523;28;7644;-74
2022/11/02 09:35:53;;;;;;;;;;;;;;;;;;5042730;28;7529;-75
2022/11/02 09:38:19;;;;;;;;;;;;;;;;;;5041443;28;7629;-73
2022/11/02 09:40:44;;;;;;;;;;;;;;;;;;5043318;28;7533;-74
2022/11/02 09:43:09;;;;;;;;;;;;;;;;;;5040635;28;7524;-74
2022/11/02 09:45:34;;;;;;;;;;;;;;;;;;5038968;28;7525;-73
2022/11/02 09:47:59;;;;;;;;;;;;;;;;;;5032053;28;7533;-72
2022/11/02 09:50:24;;;;;;;;;;;;;;;;;;5032157;28;7525;-72
2022/11/02 09:52:49;;;;;;;;;;;;;;;;;;5032078;28;7525;-74
2022/11/02 09:55:15;;;;;;;;;;;;;;;;;;5031741;28;7533;-73
2022/11/02 09:57:40;;;;;;;;;;;;;;;;;;5031678;28;7594;-73
2022/11/02 10:00:08;;;;;;;;;18.60;16.20;;;;;;;;5029925;28;7960;-74
2022/11/02 10:02:43;;;;;;;;;24.50;21.00;;;;;;;;5029472;28;8783;-74
2022/11/02 10:05:11;;;;;;;;;30.00;27.67;;;;;;;;5024441;28;14293;-73
2022/11/02 10:07:39;;;;;;;;;26.75;21.75;;;;;;;;5029943;28;9556;-74
2022/11/02 10:10:22;;;;;;;;;23.50;22.25;;;;;;;;5030691;28;13422;-75
2022/11/02 10:12:47;;;;;;;;;;;;;;;;;;5032577;28;11461;-73
2022/11/02 10:15:12;;;;;;;;;;;;;;;;;;5034002;28;7521;-72
2022/11/02 10:17:38;;;;;;;;;19.60;19.60;;;;;;;;5037319;28;9516;-73
2022/11/02 10:20:04;;;;;;;;;;;;;;;;;;5041675;28;8811;-72
2022/11/02 10:22:29;;;;;;;;;;;;;;;;;;5041025;28;8843;-72
2022/11/02 10:24:55;;;;;;;;;;;;;;;;;;5042246;28;7525;-72
2022/11/02 10:27:22;;;;;;;;;;;;;;;;;;5041598;28;7563;-72
2022/11/02 10:29:53;;;;;;;;;20.25;18.00;;;;;;;;5037207;28;7627;-72
2022/11/02 10:32:19;;;;;;;;;26.40;24.40;;;;;;;;5034668;28;14203;-71
2022/11/02 10:34:45;;;;;;;;;22.50;20.50;;;;;;;;5036530;28;13590;-71
2022/11/02 10:37:10;;;;;;;;;;;;;;;;;;5051981;28;8801;-71
2022/11/02 10:39:35;;;;;;;;;;;;;;;;;;5051929;28;8880;-75
2022/11/02 10:42:00;;;;;;;;;19.25;16.25;;;;;;;;5045814;28;7559;-74
2022/11/02 10:44:26;;;;;;;;;;;;;;;;;;5041484;28;8801;-74
2022/11/02 10:46:51;;;;;;;;;;;;;;;;;;5040061;28;7537;-75
2022/11/02 10:49:16;;;;;;;;;;;;;;;;;;5038467;28;7517;-75
2022/11/02 10:51:41;;;;;;;;;;;;;;;;;;5051479;28;7541;-73
2022/11/02 10:54:06;;;;;;;;;;;;;;;;;;5051336;28;7517;-72
2022/11/02 10:56:31;;;;;;;;;;;;;;;;;;5051117;28;7544;-76
2022/11/02 10:58:56;;;;;;;;;;;;;;;;;;5041480;28;7537;-77
2022/11/02 11:01:21;;;;;;;;;;;;;;;;;;5037801;28;7576;-76
2022/11/02 11:03:46;;;;;;;;;;;;;;;;;;5034348;28;8893;-76
2022/11/02 11:06:12;;;;;;;;;;;;;;;;;;5030421;28;8822;-77
2022/11/02 18:04:04;;;;;;;;;29.50;25.75;;;;;;;;5040114;27;1332269;-75
2022/11/02 18:06:29;;;;;;;;;26.67;25.00;;;;;;;;5062882;28;13564;-76
2022/11/02 18:09:09;;;;;;;;;30.50;26.50;;;;;;;;5063118;28;13544;-81
2022/11/02 18:11:38;;;;;;;;;26.00;24.00;;;;;;;;5055626;28;13596;-80
2022/11/02 18:14:03;;;;;;;;;34.80;30.60;;;;;;;;5060712;28;13677;-80
2022/11/02 18:16:28;;;;;;;;;44.00;38.75;;;;;;;;5062539;28;13606;-81
2022/11/02 18:18:54;;;;;;;;;41.25;31.75;;;;;;;;5062461;28;13575;-80
2022/11/02 18:21:19;;;;;;;;;28.00;23.00;;;;;;;;5061260;28;13580;-81
2022/11/02 18:23:46;;;;;;;;;28.25;25.00;;;;;;;;5062328;28;13698;-81
2022/11/02 18:26:12;;;;;;;;;26.20;23.40;;;;;;;;5062026;28;13544;-84
2022/11/02 18:28:37;;;;;;;;;29.67;26.33;;;;;;;;5010619;28;13605;-81
2022/11/02 18:31:06;;;;;;;;;26.00;23.00;;;;;;;;5030782;28;13659;-82
2022/11/02 18:33:35;;;;;;;;;21.00;20.00;;;;;;;;5022982;28;13586;-80
2022/11/02 18:36:01;;;;;;;;;16.75;13.50;;;;;;;;5022631;28;13737;-77
2022/11/02 18:38:27;;;;;;;;;;;;;;;;;;5028323;28;11501;-77
2022/11/02 18:40:52;;;;;;;;;;;;;;;;;;5020760;28;7994;-74
2022/11/02 18:43:18;;;;;;;;;;;;;;;;;;5007572;28;7526;-74
2022/11/02 18:45:43;;;;;;;;;;;;;;;;;;5007895;28;7576;-74
2022/11/02 18:48:08;;;;;;;;;;;;;;;;;;5008207;28;7541;-78
2022/11/02 18:50:33;;;;;;;;;;;;;;;;;;5011796;28;7521;-81
2022/11/02 18:52:58;;;;;;;;;;;;;;;;;;5026299;28;7514;-81
2022/11/02 18:55:24;;;;;;;;;;;;;;;;;;5021654;28;7529;-79
2022/11/02 18:57:49;;;;;;;;;;;;;;;;;;5021946;23;7533;-74
2022/11/02 19:00:14;;;;;;;;;;;;;;;;;;5001629;28;7522;-74
2022/11/02 19:02:40;;;;;;;;;;;;;;;;;;4988730;28;7633;-73
2022/11/02 19:09:16;;;;;;;;;;;;;;;;;;4988389;28;7526;-74
2022/11/02 19:10:34;;;;;;;;;;;;;;;;;;4996899;28;7533;-73
2022/11/02 19:12:59;;;;;;;;;;;;;;;;;;5006900;28;7563;-74
2022/11/02 19:15:24;;;;;;;;;;;;;;;;;;4993865;28;7649;-73
2022/11/02 19:17:49;;;;;;;;;;;;;;;;;;4993827;28;7545;-71
2022/11/02 19:20:14;;;;;;;;;;;;;;;;;;4990782;28;7534;-73
2022/11/02 19:22:39;;;;;;;;;;;;;;;;;;4994381;28;7534;-72
2022/11/02 19:25:04;;;;;;;;;;;;;;;;;;4994158;28;7612;-72
2022/11/02 19:27:30;;;;;;;;;;;;;;;;;;4992737;28;7517;-72
2022/11/02 19:29:55;;;;;;;;;;;;;;;;;;4989968;28;7534;-72
2022/11/02 19:32:20;;;;;;;;;;;;;;;;;;4974806;28;7526;-75
2022/11/02 19:34:45;;;;;;;;;;;;;;;;;;4973748;28;7534;-73
2022/11/02 19:37:10;;;;;;;;;;;;;;;;;;4975474;28;7549;-74
2022/11/02 19:39:35;;;;;;;;;;;;;;;;;;4982312;28;7537;-77
2022/11/02 19:42:02;;;;;;;;;;;;;;;;;;4984195;28;7549;-75
2022/11/02 19:44:27;;;;;;;;;;;;;;;;;;4994646;28;7534;-74
2022/11/02 19:46:52;;;;;;;;;;;;;;;;;;4994639;28;7538;-75
2022/11/02 19:49:17;;;;;;;;;;;;;;;;;;4994379;28;7522;-73
2022/11/02 19:51:42;;;;;;;;;;;;;;;;;;4975945;28;7534;-73
2022/11/02 19:54:08;;;;;;;;;;;;;;;;;;4974860;28;7541;-75
2022/11/02 19:56:33;;;;;;;;;;;;;;;;;;4974426;28;7533;-78
2022/11/02 19:58:59;;;;;;;;;;;;;;;;;;4973694;28;7530;-75
2022/11/02 20:01:24;;;;;;;;;;;;;;;;;;4984594;28;7526;-73
2022/11/02 20:03:49;;;;;;;;;;;;;;;;;;4993753;28;7529;-74
2022/11/02 20:06:14;;;;;;;;;;;;;;;;;;4993788;28;7522;-78
2022/11/02 20:08:39;;;;;;;;;;;;;;;;;;4993397;28;7533;-76
2022/11/02 20:11:05;;;;;;;;;;;;;;;;;;4989860;28;7624;-75
2022/11/02 20:13:30;;;;;;;;;;;;;;;;;;4993407;28;7521;-73
2022/11/02 20:18:29;;;;;;;;;23.25;21.00;;;;;;;;5055439;28;13427;-88
2022/11/02 20:21:01;;;;;;;;;33.75;31.25;;;;;;;;5044306;28;11555;-83
2022/11/02 20:23:26;;;;;;;;;39.25;29.00;;;;;;;;5047713;28;9808;-89
2022/11/02 20:25:51;;;;;;;;;40.75;35.75;;;;;;;;5048410;28;11560;-84
2022/11/02 20:28:17;;;;;;;;;20.75;20.00;;;;;;;;5045461;28;8917;-85
2022/11/02 20:30:42;;;;;;;;;33.00;26.50;;;;;;;;5045142;28;8815;-87
2022/11/02 20:33:08;;;;;;;;;41.25;36.75;;;;;;;;5046014;28;8827;-85
2022/11/02 20:35:33;;;;;;;;;41.25;36.50;;;;;;;;5048440;28;8838;-82
2022/11/02 20:37:58;;;;;;;;;30.25;27.00;;;;;;;;5053161;28;8834;-82
2022/11/02 20:40:24;;;;;;;;;77.00;58.00;;;;;;;;5047075;28;8854;-82
2022/11/02 20:42:50;;;;;;;;;51.00;37.50;;;;;;;;5046749;28;8905;-84
2022/11/02 20:45:16;;;;;;;;;70.00;51.00;;;;;;;;5047406;28;11641;-93
2022/11/02 20:47:41;;;;;;;;;39.25;34.50;;;;;;;;5047187;28;8892;-79
2022/11/02 20:50:07;;;;;;;;;27.75;25.50;;;;;;;;5044206;28;11585;-79
2022/11/02 20:52:32;;;;;;;;;20.75;20.00;;;;;;;;5046831;28;8835;-80
2022/11/02 20:54:57;;;;;;;;;25.75;22.00;;;;;;;;5044690;28;8804;-80
2022/11/02 20:57:23;;;;;;;;;23.00;21.50;;;;;;;;5085531;22;9956;-77
2022/11/02 20:59:48;;;;;;;;;25.00;22.50;;;;;;;;5043773;28;8801;-77
2022/11/02 21:02:16;;;;;;;;;24.00;22.75;;;;;;;;5027407;28;8833;-78
2022/11/02 21:04:42;;;;;;;;;26.50;22.00;;;;;;;;5028016;28;8809;-77
2022/11/02 21:07:07;;;;;;;;;26.25;24.25;;;;;;;;5045714;28;11659;-78
2022/11/02 21:09:33;;;;;;;;;30.25;26.75;;;;;;;;5045554;28;9562;-82
2022/11/02 21:14:43;;;;;;;;;29.75;25.75;;;;;;;;5044979;28;11560;-79
2022/11/02 21:17:08;;;;;;;;;29.25;20.50;;;;;;;;5044716;28;11685;-83
2022/11/02 21:19:33;;;;;;;;;25.25;23.50;;;;;;;;5045194;28;8843;-81
2022/11/02 21:21:58;;;;;;;;;28.50;25.75;;;;;;;;5043014;28;8789;-85
2022/11/02 21:24:24;;;;;;;;;27.50;24.50;;;;;;;;5047278;28;8924;-83
2022/11/02 21:26:49;;;;;;;;;24.75;20.75;;;;;;;;5045209;28;8813;-79
2022/11/02 21:29:14;;;;;;;;;23.75;22.75;;;;;;;;5034876;28;8836;-78
2022/11/02 21:31:39;;;;;;;;;25.75;21.50;;;;;;;;5030202;28;8822;-78
2022/11/02 21:34:07;;;;;;;;;21.50;21.00;;;;;;;;5032016;28;8817;-77
2022/11/02 21:36:35;;;;;;;;;27.25;23.25;;;;;;;;5014243;28;8844;-82
2022/11/02 21:39:01;;;;;;;;;24.50;21.25;;;;;;;;5031965;28;11572;-82
2022/11/02 21:41:28;;;;;;;;;30.00;24.75;;;;;;;;5033736;28;11496;-74
2022/11/02 21:43:54;;;;;;;;;21.00;21.00;;;;;;;;5014019;28;8805;-80
2022/11/02 21:46:20;;;;;;;;;21.75;19.25;;;;;;;;5014031;28;11567;-77
2022/11/02 21:48:45;;;;;;;;;24.00;20.75;;;;;;;;5031813;28;11499;-79
2022/11/02 21:51:16;;;;;;;;;21.50;21.25;;;;;;;;5011940;28;8851;-82
2022/11/02 21:53:44;;;;;;;;;23.50;21.00;;;;;;;;5030931;28;8880;-84
2022/11/02 21:56:11;;;;;;;;;21.25;19.50;;;;;;;;4964587;28;12283;-83
2022/11/02 21:58:40;;;;;;;;;16.00;16.00;;;;;;;;5012937;28;11634;-80
2022/11/02 22:01:43;;;;;;;;;19.75;19.75;;;;;;;;5009996;28;11519;-83
2022/11/02 22:04:10;;;;;;;;;21.50;18.50;;;;;;;;5012341;28;11585;-79
2022/11/02 22:06:36;;;;;;;;;18.50;17.50;;;;;;;;5011795;28;11456;-77
2022/11/02 22:09:02;;;;;;;;;21.25;19.75;;;;;;;;5011915;28;11571;-78
2022/11/02 22:11:28;;;;;;;;;22.25;18.50;;;;;;;;5008578;28;9980;-74
2022/11/02 22:13:54;;;;;;;;;21.00;20.00;;;;;;;;5011865;28;11491;-74
2022/11/02 22:16:24;;;;;;;;;18.25;17.00;;;;;;;;5011694;28;8814;-73
2022/11/02 22:18:50;;;;;;;;;24.75;19.75;;;;;;;;5010170;28;11503;-74
2022/11/02 22:21:16;;;;;;;;;18.75;18.75;;;;;;;;5009383;28;11517;-73
2022/11/02 22:23:42;;;;;;;;;26.75;20.00;;;;;;;;5011634;28;12242;-75
2022/11/02 22:26:11;;;;;;;;;22.25;21.00;;;;;;;;5012048;28;11552;-75
2022/11/02 22:28:38;;;;;;;;;26.25;23.00;;;;;;;;5010992;28;11563;-75
2022/11/02 22:31:07;;;;;;;;;27.75;22.25;;;;;;;;5007062;28;11568;-74
2022/11/02 22:33:35;;;;;;;;;26.50;22.25;;;;;;;;5011439;28;11570;-73
2022/11/02 22:36:12;;;;;;;;;22.50;21.25;;;;;;;;5010032;28;11540;-73
2022/11/02 22:38:52;;;;;;;;;27.50;23.00;;;;;;;;5011229;28;11599;-74
2022/11/02 22:41:27;;;;;;;;;21.75;19.75;;;;;;;;5005335;28;11698;-73
2022/11/02 22:44:12;;;;;;;;;21.50;18.25;;;;;;;;5009773;28;11666;-73
2022/11/02 22:46:42;;;;;;;;;21.00;17.00;;;;;;;;5010195;28;11597;-73
2022/11/02 22:49:16;;;;;;;;;24.25;20.00;;;;;;;;5012804;28;11575;-73
2022/11/02 22:51:42;;;;;;;;;20.50;19.00;;;;;;;;5017633;28;11545;-74
2022/11/02 22:54:09;;;;;;;;;20.25;18.75;;;;;;;;5010491;28;11674;-74
2022/11/02 22:56:34;;;;;;;;;18.00;17.00;;;;;;;;5010774;28;11776;-74
2022/11/02 22:59:00;;;;;;;;;18.75;17.50;;;;;;;;5009723;28;11674;-72
2022/11/02 23:01:26;;;;;;;;;19.75;18.25;;;;;;;;5008923;28;8806;-74
2022/11/02 23:03:52;;;;;;;;;19.75;16.50;;;;;;;;5010413;28;8782;-76
2022/11/02 23:06:21;;;;;;;;;21.00;19.00;;;;;;;;5009107;28;11503;-75
2022/11/02 23:08:47;;;;;;;;;16.50;15.75;;;;;;;;5009685;28;8916;-81
2022/11/02 23:11:23;;;;;;;;;20.25;19.75;;;;;;;;5009771;28;11475;-80
2022/11/02 23:13:53;;;;;;;;;18.00;17.00;;;;;;;;5009589;28;11559;-80
2022/11/02 23:16:25;;;;;;;;;22.75;17.00;;;;;;;;5009548;28;11614;-81
2022/11/02 23:21:48;;;;;;;;;18.00;16.75;;;;;;;;5010514;28;12186;-82
2022/11/02 23:27:01;;;;;;;;;19.00;17.75;;;;;;;;5010226;28;11511;-81